Time;durP1;ratioP1;P1;durP2;ratioP2;P2;SDS_P1;SDS_P2;PMS_P1;PMS_P2;Temp;Humidity;BMP_temperature;BMP_pressure;BME280_temperature;BME280_humidity;BME280_pressure;Samples;Min_cycle;Max_cycle;Signal;HPM_P1;HPM_P2
2020/12/10 00:01:18;;;;;;;35.22;19.65;;;3.00;99.90;;;;;;4985920;28;20029;-94
2020/12/10 00:03:46;;;;;;;33.88;18.52;;;2.90;99.90;;;;;;5025701;28;20028;-93
2020/12/10 00:06:12;;;;;;;34.53;17.88;;;2.80;99.90;;;;;;5012993;28;20046;-93
2020/12/10 00:08:38;;;;;;;30.15;15.27;;;2.70;99.90;;;;;;5029976;28;20024;-94
2020/12/10 00:11:04;;;;;;;26.60;15.10;;;2.70;99.90;;;;;;5012724;28;20038;-93
2020/12/10 00:13:34;;;;;;;27.25;14.88;;;2.60;99.90;;;;;;5012507;28;20041;-93
2020/12/10 00:16:03;;;;;;;26.17;13.57;;;2.50;99.90;;;;;;5017026;28;20029;-92
2020/12/10 00:18:28;;;;;;;24.85;12.88;;;2.30;99.90;;;;;;5023694;28;20065;-94
2020/12/10 00:20:54;;;;;;;21.80;11.48;;;2.30;99.90;;;;;;5033433;28;20057;-95
2020/12/10 00:23:21;;;;;;;21.45;11.95;;;2.20;99.90;;;;;;5016264;28;20063;-94
2020/12/10 00:25:48;;;;;;;28.25;15.55;;;2.10;99.90;;;;;;5020490;28;20060;-93
2020/12/10 00:28:13;;;;;;;33.08;18.23;;;2.00;99.90;;;;;;5013385;28;20030;-93
2020/12/10 00:30:39;;;;;;;31.27;16.52;;;2.00;99.90;;;;;;5019522;28;20108;-95
2020/12/10 00:33:05;;;;;;;31.23;16.67;;;2.00;99.90;;;;;;5016109;28;20475;-93
2020/12/10 00:35:31;;;;;;;32.35;18.08;;;2.00;99.90;;;;;;4999476;28;20168;-93
2020/12/10 00:37:57;;;;;;;31.90;17.50;;;1.90;99.90;;;;;;4999180;28;20517;-93
2020/12/10 00:40:22;;;;;;;29.92;16.73;;;1.90;99.90;;;;;;5034152;28;20722;-94
2020/12/10 00:42:48;;;;;;;29.25;16.83;;;1.80;99.90;;;;;;5015828;28;20175;-95
2020/12/10 00:45:16;;;;;;;28.75;17.08;;;1.80;99.90;;;;;;5019699;28;20573;-94
2020/12/10 00:47:41;;;;;;;28.02;15.77;;;1.70;99.90;;;;;;5020788;28;20132;-92
2020/12/10 00:50:08;;;;;;;30.45;17.25;;;1.70;99.90;;;;;;5018743;28;20113;-93
2020/12/10 00:52:37;;;;;;;30.27;18.10;;;1.60;99.90;;;;;;5015527;28;20029;-94
2020/12/10 00:55:04;;;;;;;36.33;19.50;;;1.60;99.90;;;;;;5020358;28;20021;-95
2020/12/10 00:57:29;;;;;;;34.55;20.52;;;1.60;99.90;;;;;;5032550;28;20037;-93
2020/12/10 00:59:55;;;;;;;32.50;19.63;;;1.50;99.90;;;;;;5014936;28;20034;-93
2020/12/10 01:02:21;;;;;;;30.30;17.80;;;1.50;99.90;;;;;;5015085;28;20026;-94
2020/12/10 01:04:46;;;;;;;29.15;17.48;;;1.50;99.90;;;;;;5015926;28;20128;-93
2020/12/10 01:07:15;;;;;;;27.00;16.25;;;1.40;99.90;;;;;;5032370;28;20477;-93
2020/12/10 01:09:41;;;;;;;24.85;14.30;;;1.40;99.90;;;;;;4999712;28;20022;-92
2020/12/10 01:12:07;;;;;;;27.95;15.18;;;1.30;99.90;;;;;;5032685;28;20421;-94
2020/12/10 01:14:32;;;;;;;25.60;14.15;;;1.30;99.90;;;;;;5015117;28;20079;-94
2020/12/10 01:16:59;;;;;;;26.08;14.93;;;1.30;99.90;;;;;;5031585;28;20037;-93
2020/12/10 01:19:25;;;;;;;25.80;14.85;;;1.20;99.90;;;;;;5022726;28;20112;-94
2020/12/10 01:21:53;;;;;;;22.35;13.57;;;1.30;99.90;;;;;;5016948;28;20104;-93
2020/12/10 01:24:19;;;;;;;24.27;14.43;;;1.30;99.90;;;;;;5019702;28;20018;-93
2020/12/10 01:26:49;;;;;;;24.15;14.00;;;1.30;99.90;;;;;;5018899;28;20099;-93
2020/12/10 01:29:15;;;;;;;24.08;13.45;;;1.30;99.90;;;;;;5019243;28;20018;-94
2020/12/10 01:31:40;;;;;;;23.73;13.68;;;1.30;99.90;;;;;;5036315;28;20110;-92
2020/12/10 01:34:06;;;;;;;21.13;12.60;;;1.30;99.90;;;;;;5019104;28;20017;-93
2020/12/10 01:36:32;;;;;;;28.13;14.75;;;1.30;99.90;;;;;;5019773;28;20024;-93
2020/12/10 01:38:59;;;;;;;22.73;13.43;;;1.30;99.90;;;;;;5020086;28;20029;-92
2020/12/10 01:41:31;;;;;;;23.42;13.23;;;1.30;99.90;;;;;;5019423;28;20029;-94
2020/12/10 01:44:14;;;;;;;25.95;14.27;;;1.30;99.90;;;;;;5019127;28;20026;-94
2020/12/10 01:46:42;;;;;;;23.85;13.27;;;1.30;99.90;;;;;;5018838;28;20397;-94
2020/12/10 01:49:08;;;;;;;23.50;13.18;;;1.30;99.90;;;;;;5018968;28;20053;-94
2020/12/10 01:51:36;;;;;;;21.63;13.43;;;1.30;99.90;;;;;;5037071;28;20040;-94
2020/12/10 01:54:04;;;;;;;23.98;13.50;;;1.30;99.90;;;;;;5035074;28;20071;-93
2020/12/10 01:56:29;;;;;;;25.52;14.85;;;1.30;99.90;;;;;;5036427;28;20197;-93
2020/12/10 01:59:15;;;;;;;24.10;14.80;;;1.20;99.90;;;;;;5035758;28;20056;-93
2020/12/10 02:01:46;;;;;;;24.50;13.27;;;1.20;99.90;;;;;;5034405;28;20025;-90
2020/12/10 02:04:26;;;;;;;25.15;15.57;;;1.10;99.90;;;;;;5033649;28;20168;-93
2020/12/10 02:06:52;;;;;;;30.42;16.52;;;1.00;99.90;;;;;;5034467;28;20049;-93
2020/12/10 02:09:18;;;;;;;28.30;15.25;;;1.00;99.90;;;;;;5035041;28;20037;-93
2020/12/10 02:11:44;;;;;;;29.50;17.15;;;1.00;99.90;;;;;;5033472;28;20052;-93
2020/12/10 02:14:12;;;;;;;30.10;16.15;;;0.90;99.90;;;;;;5034072;28;20030;-91
2020/12/10 02:16:38;;;;;;;31.60;16.92;;;0.90;99.90;;;;;;5033828;28;20068;-93
2020/12/10 02:19:04;;;;;;;31.02;18.27;;;0.80;99.90;;;;;;5034753;28;20061;-93
2020/12/10 02:21:29;;;;;;;33.35;19.45;;;0.80;99.90;;;;;;5034739;28;20060;-92
2020/12/10 02:23:56;;;;;;;37.03;20.02;;;0.80;99.90;;;;;;5035765;28;20029;-91
2020/12/10 02:26:38;;;;;;;34.40;19.30;;;0.70;99.90;;;;;;5034527;28;20116;-92
2020/12/10 02:29:10;;;;;;;34.08;18.40;;;0.70;99.90;;;;;;5034513;28;20465;-92
2020/12/10 02:31:37;;;;;;;29.17;17.02;;;0.60;99.90;;;;;;5034746;28;20025;-92
2020/12/10 02:34:07;;;;;;;28.40;16.40;;;0.60;99.90;;;;;;5034644;28;20025;-93
2020/12/10 02:36:35;;;;;;;28.48;16.65;;;0.60;99.90;;;;;;5034872;28;20136;-94
2020/12/10 02:39:08;;;;;;;27.17;16.80;;;0.50;99.90;;;;;;5034578;28;20018;-93
2020/12/10 02:41:35;;;;;;;30.13;16.25;;;0.50;99.90;;;;;;5034627;28;20112;-92
2020/12/10 02:44:02;;;;;;;30.02;16.40;;;0.40;99.90;;;;;;5034658;28;20051;-92
2020/12/10 02:46:28;;;;;;;26.17;15.60;;;0.40;99.90;;;;;;5034514;28;20041;-93
2020/12/10 02:48:54;;;;;;;29.45;16.95;;;0.40;99.90;;;;;;5035445;28;20053;-92
2020/12/10 02:51:19;;;;;;;30.63;18.35;;;0.30;99.90;;;;;;5035091;28;20029;-92
2020/12/10 02:53:45;;;;;;;27.83;15.27;;;0.30;99.90;;;;;;5017845;28;20025;-92
2020/12/10 02:56:12;;;;;;;27.30;15.57;;;0.30;99.90;;;;;;5017686;28;20057;-90
2020/12/10 02:58:38;;;;;;;27.23;16.13;;;0.20;99.90;;;;;;5035159;28;20063;-90
2020/12/10 03:01:08;;;;;;;29.25;16.63;;;0.20;99.90;;;;;;5017795;28;20036;-91
2020/12/10 03:03:34;;;;;;;27.00;14.57;;;0.20;99.90;;;;;;5001338;28;20037;-90
2020/12/10 03:06:02;;;;;;;28.45;15.55;;;0.20;99.90;;;;;;5035113;28;20540;-90
2020/12/10 03:08:29;;;;;;;29.77;16.10;;;0.20;99.90;;;;;;5019825;28;20452;-90
2020/12/10 03:10:54;;;;;;;29.60;16.05;;;0.20;99.90;;;;;;5044857;28;20025;-91
2020/12/10 03:13:21;;;;;;;29.02;16.02;;;0.10;99.90;;;;;;5040502;28;20026;-91
2020/12/10 03:15:48;;;;;;;28.23;15.60;;;0.10;99.90;;;;;;5052654;28;20017;-90
2020/12/10 03:18:13;;;;;;;29.40;16.85;;;0.10;99.90;;;;;;5057645;28;20001;-92
2020/12/10 03:20:39;;;;;;;27.83;15.93;;;0.00;99.90;;;;;;5053549;28;20033;-91
2020/12/10 03:23:05;;;;;;;30.88;16.38;;;0.00;99.90;;;;;;5036503;28;20025;-91
2020/12/10 03:25:31;;;;;;;31.05;16.80;;;0.00;99.90;;;;;;5035214;28;20109;-91
2020/12/10 03:27:56;;;;;;;32.00;16.88;;;0.00;99.90;;;;;;5034059;28;20065;-91
2020/12/10 03:30:22;;;;;;;29.38;16.25;;;-0.10;99.90;;;;;;5035440;28;20029;-92
2020/12/10 03:32:49;;;;;;;26.13;15.05;;;-0.10;99.90;;;;;;5035113;28;20017;-93
2020/12/10 03:35:15;;;;;;;26.40;15.65;;;-0.10;99.90;;;;;;5017464;28;20496;-92
2020/12/10 03:37:41;;;;;;;26.35;14.43;;;-0.10;99.90;;;;;;5017378;28;20029;-91
2020/12/10 03:40:07;;;;;;;27.52;14.43;;;-0.10;99.90;;;;;;5034877;28;20022;-90
2020/12/10 03:42:33;;;;;;;24.92;14.35;;;0.00;99.90;;;;;;5034074;28;20048;-91
2020/12/10 03:44:59;;;;;;;27.85;14.15;;;0.10;99.90;;;;;;5017015;28;20470;-91
2020/12/10 03:47:24;;;;;;;28.17;15.20;;;0.10;99.90;;;;;;5033283;28;20105;-91
2020/12/10 03:49:50;;;;;;;29.38;15.93;;;0.20;99.90;;;;;;5035319;28;20034;-91
2020/12/10 03:52:16;;;;;;;29.52;14.60;;;0.20;99.90;;;;;;5038048;28;20018;-91
2020/12/10 03:54:42;;;;;;;27.92;14.40;;;0.20;99.90;;;;;;5037697;28;20032;-93
2020/12/10 03:57:08;;;;;;;27.67;13.90;;;0.30;99.90;;;;;;5037871;28;20022;-92
2020/12/10 03:59:34;;;;;;;30.77;16.17;;;0.30;99.90;;;;;;5020774;28;20136;-91
2020/12/10 04:02:00;;;;;;;26.27;14.52;;;0.30;99.90;;;;;;5021254;28;20540;-91
2020/12/10 04:04:25;;;;;;;28.95;15.35;;;0.40;99.90;;;;;;5004494;28;20059;-92
2020/12/10 04:06:51;;;;;;;26.45;14.00;;;0.40;99.90;;;;;;5038608;28;20072;-92
2020/12/10 04:09:17;;;;;;;24.75;13.38;;;0.40;99.90;;;;;;5038330;28;20057;-91
2020/12/10 04:11:43;;;;;;;28.17;15.80;;;0.40;99.90;;;;;;5038820;28;20474;-90
2020/12/10 04:14:09;;;;;;;25.58;14.32;;;0.30;99.90;;;;;;5020855;28;20116;-92
2020/12/10 04:16:35;;;;;;;25.52;13.75;;;0.30;99.90;;;;;;5037220;28;20492;-92
2020/12/10 04:19:01;;;;;;;26.70;13.95;;;0.20;99.90;;;;;;5037304;28;20025;-92
2020/12/10 04:21:26;;;;;;;28.77;14.98;;;0.20;99.90;;;;;;5038106;28;20036;-91
2020/12/10 04:23:52;;;;;;;30.35;15.88;;;0.20;99.90;;;;;;5037232;28;20109;-91
2020/12/10 04:26:18;;;;;;;26.75;14.57;;;0.10;99.90;;;;;;5038564;28;20029;-89
2020/12/10 04:28:44;;;;;;;28.40;15.13;;;0.10;99.90;;;;;;5038128;28;20055;-90
2020/12/10 04:31:11;;;;;;;28.83;15.25;;;0.00;99.90;;;;;;5036960;28;20029;-90
2020/12/10 04:33:38;;;;;;;27.42;15.70;;;0.00;99.90;;;;;;5037086;28;20031;-90
2020/12/10 04:36:05;;;;;;;26.73;15.27;;;0.00;99.90;;;;;;5036881;28;20036;-91
2020/12/10 04:38:32;;;;;;;28.90;15.18;;;-0.10;99.90;;;;;;5036537;28;20025;-90
2020/12/10 04:41:07;;;;;;;30.63;15.88;;;-0.10;99.90;;;;;;5038038;28;20120;-89
2020/12/10 04:43:32;;;;;;;27.67;14.85;;;-0.20;99.90;;;;;;5036638;28;20022;-89
2020/12/10 04:46:00;;;;;;;26.15;14.23;;;-0.20;99.90;;;;;;5020351;28;20041;-90
2020/12/10 04:48:30;;;;;;;25.85;13.02;;;-0.30;99.90;;;;;;5037213;28;20050;-89
2020/12/10 04:50:58;;;;;;;26.63;14.98;;;-0.30;99.90;;;;;;5020010;28;20041;-90
2020/12/10 04:53:26;;;;;;;27.80;14.90;;;-0.30;99.90;;;;;;5019887;28;20108;-90
2020/12/10 04:55:57;;;;;;;27.00;15.18;;;-0.30;99.90;;;;;;5019353;28;20033;-90
2020/12/10 04:58:23;;;;;;;27.70;15.43;;;-0.40;99.90;;;;;;5019707;28;20179;-90
2020/12/10 05:00:56;;;;;;;27.92;15.77;;;-0.40;99.90;;;;;;5036061;28;20053;-91
2020/12/10 05:03:22;;;;;;;;;;;-0.40;99.90;;;;;;5020249;28;20029;-90
2020/12/10 05:05:47;;;;;;;26.52;13.52;;;-0.50;99.90;;;;;;5019725;28;20254;-89
2020/12/10 05:08:13;;;;;;;24.65;13.43;;;-0.50;99.90;;;;;;5019570;28;20029;-90
2020/12/10 05:10:45;;;;;;;23.52;13.30;;;-0.50;99.90;;;;;;5037525;28;20449;-90
2020/12/10 05:13:13;;;;;;;29.52;16.17;;;-0.50;99.90;;;;;;5019141;28;20021;-89
2020/12/10 05:15:40;;;;;;;24.95;14.27;;;-0.50;99.90;;;;;;5019531;28;20032;-90
2020/12/10 05:18:13;;;;;;;26.92;14.93;;;-0.50;99.90;;;;;;5037027;28;20029;-90
2020/12/10 05:20:45;;;;;;;26.98;15.20;;;-0.50;99.90;;;;;;5019394;28;20453;-89
2020/12/10 05:23:13;;;;;;;25.90;14.32;;;-0.50;99.90;;;;;;5019208;28;20018;-89
2020/12/10 05:25:48;;;;;;;27.60;14.98;;;-0.50;99.90;;;;;;5019061;28;20026;-89
2020/12/10 05:28:14;;;;;;;33.05;17.00;;;-0.50;99.90;;;;;;5037866;28;20051;-89
2020/12/10 05:30:45;;;;;;;31.75;16.40;;;-0.60;99.90;;;;;;5037605;28;20026;-90
2020/12/10 05:33:15;;;;;;;28.85;15.80;;;-0.50;99.90;;;;;;5018925;28;20029;-89
2020/12/10 05:35:42;;;;;;;25.98;14.55;;;-0.60;99.90;;;;;;5036546;28;20048;-90
2020/12/10 05:38:10;;;;;;;25.65;13.93;;;-0.60;99.90;;;;;;5036259;28;20057;-91
2020/12/10 05:40:36;;;;;;;27.88;14.65;;;-0.60;99.90;;;;;;5018587;28;20037;-90
2020/12/10 05:43:04;;;;;;;27.23;15.27;;;-0.60;99.90;;;;;;5018594;28;20022;-89
2020/12/10 05:45:30;;;;;;;28.48;14.82;;;-0.60;99.90;;;;;;5018675;28;20029;-90
2020/12/10 05:47:59;;;;;;;29.27;15.68;;;-0.60;99.90;;;;;;5018368;28;20056;-89
2020/12/10 05:50:33;;;;;;;26.13;13.80;;;-0.60;99.90;;;;;;5018387;28;20037;-90
2020/12/10 05:53:11;;;;;;;28.35;14.63;;;-0.70;99.90;;;;;;5035825;28;20021;-90
2020/12/10 05:55:44;;;;;;;26.40;14.13;;;-0.70;99.90;;;;;;5031034;28;20065;-88
2020/12/10 05:58:10;;;;;;;29.98;14.88;;;-0.70;99.90;;;;;;5010494;28;20038;-89
2020/12/10 06:00:39;;;;;;;32.20;15.70;;;-0.70;99.90;;;;;;5007755;28;20378;-89
2020/12/10 06:03:10;;;;;;;28.40;15.23;;;-0.70;99.90;;;;;;5033944;28;20457;-88
2020/12/10 06:05:38;;;;;;;27.95;16.05;;;-0.70;99.90;;;;;;5015763;28;20136;-88
2020/12/10 06:08:08;;;;;;;28.75;14.90;;;-0.70;99.90;;;;;;5015666;28;20071;-89
2020/12/10 06:10:39;;;;;;;29.70;16.00;;;-0.80;99.90;;;;;;5015412;28;20416;-89
2020/12/10 06:13:07;;;;;;;27.77;14.63;;;-0.70;99.90;;;;;;5033475;28;20029;-89
2020/12/10 06:15:34;;;;;;;29.40;15.05;;;-0.80;99.90;;;;;;5015898;28;20080;-89
2020/12/10 06:18:04;;;;;;;28.73;15.55;;;-0.70;99.90;;;;;;5032910;28;20030;-90
2020/12/10 06:20:44;;;;;;;33.38;17.40;;;-0.80;99.90;;;;;;5019331;28;20144;-89
2020/12/10 06:23:30;;;;;;;29.52;16.10;;;-0.80;99.90;;;;;;5017998;28;20095;-89
2020/12/10 06:25:58;;;;;;;28.23;15.32;;;-0.80;99.90;;;;;;5017328;28;20034;-88
2020/12/10 06:28:26;;;;;;;28.33;15.68;;;-0.80;99.90;;;;;;5013476;28;20033;-89
2020/12/10 06:31:05;;;;;;;37.22;17.77;;;-0.80;99.90;;;;;;5002330;28;20033;-88
2020/12/10 06:33:42;;;;;;;29.13;15.68;;;-0.80;99.90;;;;;;5015472;28;20079;-89
2020/12/10 06:36:21;;;;;;;28.27;15.23;;;-0.80;99.90;;;;;;5014379;28;20047;-88
2020/12/10 06:38:54;;;;;;;29.67;15.63;;;-0.80;99.90;;;;;;5019824;28;20038;-89
2020/12/10 06:41:20;;;;;;;28.95;15.20;;;-0.80;99.90;;;;;;5014339;28;20152;-88
2020/12/10 06:43:47;;;;;;;28.92;15.90;;;-0.80;99.90;;;;;;4997650;28;20093;-88
2020/12/10 06:46:12;;;;;;;27.67;14.82;;;-0.80;99.90;;;;;;5031362;28;20029;-88
2020/12/10 06:48:46;;;;;;;30.35;15.88;;;-0.80;99.90;;;;;;5036163;28;20155;-88
2020/12/10 06:51:20;;;;;;;31.23;16.70;;;-0.80;99.90;;;;;;5045268;28;20151;-88
2020/12/10 06:54:02;;;;;;;;;;;-0.80;99.90;;;;;;5034960;28;20025;-88
2020/12/10 06:56:46;;;;;;;28.42;13.93;;;-0.80;99.90;;;;;;5016946;28;20246;-88
2020/12/10 06:59:12;;;;;;;27.02;14.00;;;-0.80;99.90;;;;;;5034447;28;20022;-88
2020/12/10 07:01:54;;;;;;;28.40;14.57;;;-0.80;99.90;;;;;;5016669;28;20457;-89
2020/12/10 07:07:20;;;;;;;27.67;14.65;;;-0.80;99.90;;;;;;5054294;28;20037;-88
2020/12/10 07:09:49;;;;;;;28.90;14.32;;;-0.80;99.90;;;;;;5036244;28;20048;-88
2020/12/10 07:12:44;;;;;;;30.77;14.82;;;-0.80;99.90;;;;;;5036746;28;20484;-88
2020/12/10 07:15:26;;;;;;;27.00;14.20;;;-0.80;99.90;;;;;;5027879;28;20104;-88
2020/12/10 07:17:53;;;;;;;27.63;15.00;;;-0.80;99.90;;;;;;5015827;28;20093;-88
2020/12/10 07:20:24;;;;;;;27.83;14.40;;;-0.80;99.90;;;;;;5014944;28;20888;-88
2020/12/10 07:23:04;;;;;;;29.90;14.27;;;-0.70;99.90;;;;;;5017179;28;20462;-88
2020/12/10 07:25:41;;;;;;;30.40;15.90;;;-0.70;99.90;;;;;;5044098;28;20048;-88
2020/12/10 07:28:09;;;;;;;31.10;15.65;;;-0.70;99.90;;;;;;5021170;28;20127;-88
2020/12/10 07:30:35;;;;;;;30.95;15.93;;;-0.70;99.90;;;;;;5036021;28;20414;-87
2020/12/10 07:33:07;;;;;;;35.08;17.25;;;-0.70;99.90;;;;;;5036541;28;20021;-88
2020/12/10 07:35:35;;;;;;;31.83;16.17;;;-0.70;99.90;;;;;;5010681;28;20029;-87
2020/12/10 07:38:37;;;;;;;32.35;15.63;;;-0.70;99.90;;;;;;5013164;28;20536;-88
2020/12/10 07:41:12;;;;;;;30.17;15.02;;;-0.70;99.90;;;;;;5012761;28;20044;-88
2020/12/10 07:43:53;;;;;;;35.47;17.23;;;-0.70;99.90;;;;;;5016734;28;20018;-89
2020/12/10 07:46:20;;;;;;;28.67;15.07;;;-0.70;99.90;;;;;;5063084;28;20086;-86
2020/12/10 07:48:48;;;;;;;30.95;15.65;;;-0.70;99.90;;;;;;5060000;28;20029;-88
2020/12/10 07:51:25;;;;;;;29.27;16.10;;;-0.70;99.90;;;;;;5055178;28;20045;-88
2020/12/10 07:57:11;;;;;;;;;;;;;;;;;;;;;
2020/12/10 08:00:17;;;;;;;30.10;15.40;;;-0.60;99.90;;;;;;4999354;28;20024;-89
2020/12/10 08:03:21;;;;;;;33.85;17.27;;;-0.60;99.90;;;;;;5003036;28;20042;-89
2020/12/10 08:06:08;;;;;;;30.98;15.35;;;-0.60;99.90;;;;;;5010678;28;20479;-89
2020/12/10 08:09:10;;;;;;;27.52;14.85;;;-0.50;99.90;;;;;;5025985;28;20053;-88
2020/12/10 08:12:15;;;;;;;34.75;15.82;;;-0.50;99.90;;;;;;5041526;28;20037;-89
2020/12/10 08:15:00;;;;;;;30.05;14.93;;;-0.50;99.90;;;;;;5025133;28;20021;-88
2020/12/10 08:17:32;;;;;;;31.05;15.77;;;-0.50;99.90;;;;;;5005030;28;20018;-89
2020/12/10 08:20:29;;;;;;;33.58;17.70;;;-0.40;99.90;;;;;;5021772;28;20029;-89
2020/12/10 08:23:07;;;;;;;35.40;16.45;;;-0.40;99.90;;;;;;4990400;28;20029;-88
2020/12/10 08:25:48;;;;;;;33.40;16.50;;;-0.40;99.90;;;;;;5029509;28;20476;-89
2020/12/10 08:28:14;;;;;;;38.08;19.05;;;-0.30;99.90;;;;;;5042605;28;20055;-90
2020/12/10 08:31:05;;;;;;;;;;;;;;;;;;;;;
2020/12/10 08:33:41;;;;;;;35.40;18.30;;;-0.20;99.90;;;;;;5054974;28;20033;-88
2020/12/10 08:36:12;;;;;;;36.90;18.20;;;-0.20;99.90;;;;;;5038488;28;20374;-89
2020/12/10 08:38:54;;;;;;;39.17;19.83;;;-0.10;99.90;;;;;;5040396;28;20029;-89
2020/12/10 08:41:55;;;;;;;41.88;20.23;;;-0.10;99.90;;;;;;5058313;28;20460;-89
2020/12/10 08:44:22;;;;;;;38.95;19.92;;;-0.10;99.90;;;;;;5057518;28;20032;-91
2020/12/10 08:47:03;;;;;;;39.67;20.25;;;0.00;99.90;;;;;;5020184;28;20030;-89
2020/12/10 08:49:39;;;;;;;44.22;23.02;;;0.00;99.90;;;;;;5017418;28;20104;-89
2020/12/10 08:52:08;;;;;;;42.40;22.25;;;0.10;99.90;;;;;;5017612;28;20021;-90
2020/12/10 08:54:35;;;;;;;46.65;21.05;;;0.10;99.90;;;;;;5035190;28;20117;-89
2020/12/10 08:57:09;;;;;;;41.70;20.90;;;0.20;99.90;;;;;;5017937;28;20105;-90
2020/12/10 09:03:12;;;;;;;45.40;23.17;;;0.20;99.90;;;;;;5018127;28;20504;-89
2020/12/10 09:05:38;;;;;;;47.28;23.83;;;1.30;99.90;;;;;;5017672;28;20036;-90
2020/12/10 09:08:10;;;;;;;45.95;23.08;;;1.90;99.90;;;;;;5020074;28;20022;-89
2020/12/10 09:10:47;;;;;;;;;;;;;;;;;;;;;
2020/12/10 09:13:27;;;;;;;45.65;24.13;;;2.50;99.90;;;;;;5020308;28;20454;-90
2020/12/10 09:16:04;;;;;;;37.08;21.02;;;2.20;99.90;;;;;;5017753;28;20038;-90
2020/12/10 09:18:51;;;;;;;40.00;21.88;;;1.90;99.90;;;;;;5018659;28;20026;-89
2020/12/10 09:21:16;;;;;;;38.90;20.98;;;1.60;99.90;;;;;;5018530;28;20501;-89
2020/12/10 09:27:06;;;;;;;;;;;;;;;;;;;;;
2020/12/10 09:29:52;;;;;;;;;;;;;;;;;;;;;
2020/12/10 09:32:33;;;;;;;;;;;;;;;;;;;;;
2020/12/10 09:35:14;;;;;;;34.47;20.50;;;5.60;99.90;;;;;;5059003;28;20115;-91
2020/12/10 09:38:18;;;;;;;33.03;20.42;;;6.20;99.90;;;;;;5040788;28;20071;-91
2020/12/10 09:40:47;;;;;;;31.58;19.70;;;6.70;99.90;;;;;;5039880;28;20523;-92
2020/12/10 09:46:45;;;;;;;29.55;19.15;;;7.60;99.90;;;;;;5003071;28;20041;-91
2020/12/10 09:49:12;;;;;;;32.47;20.33;;;8.00;99.90;;;;;;5012600;28;20125;-91
2020/12/10 09:51:57;;;;;;;;;;;;;;;;;;;;;
2020/12/10 09:54:58;;;;;;;30.10;20.83;;;8.80;99.90;;;;;;5036001;28;20109;-92
2020/12/10 09:57:29;;;;;;;29.25;20.05;;;9.00;99.20;;;;;;5056045;28;20059;-92
2020/12/10 10:00:40;;;;;;;28.25;20.13;;;9.10;99.00;;;;;;5042117;28;20024;-91
2020/12/10 10:03:15;;;;;;;30.55;19.05;;;8.90;99.00;;;;;;5060167;28;20025;-91
2020/12/10 10:05:53;;;;;;;29.13;20.42;;;8.30;99.90;;;;;;5042204;28;20468;-92
2020/12/10 10:08:27;;;;;;;31.05;20.92;;;7.90;99.90;;;;;;5040333;28;20025;-93
2020/12/10 10:10:57;;;;;;;31.52;21.48;;;7.70;99.90;;;;;;5041531;28;20017;-92
2020/12/10 10:13:25;;;;;;;30.80;20.60;;;7.70;99.90;;;;;;5040754;28;20017;-92
2020/12/10 10:16:04;;;;;;;;;;;;;;;;;;;;;
2020/12/10 10:18:32;;;;;;;33.30;20.98;;;6.70;99.90;;;;;;5018727;28;20089;-95
2020/12/10 10:24:17;;;;;;;32.38;20.52;;;5.30;99.90;;;;;;5022010;28;20037;-92
2020/12/10 10:27:13;;;;;;;32.30;21.65;;;4.90;99.90;;;;;;5020433;28;20117;-92
2020/12/10 10:29:45;;;;;;;36.65;23.08;;;4.60;99.90;;;;;;5020323;28;20095;-92
2020/12/10 10:32:23;;;;;;;32.40;20.60;;;4.40;99.90;;;;;;5021242;28;20014;-92
2020/12/10 10:34:49;;;;;;;35.42;22.17;;;4.20;99.90;;;;;;5020915;28;20026;-92
2020/12/10 10:37:15;;;;;;;33.58;21.52;;;3.90;99.90;;;;;;5028111;28;20029;-92
2020/12/10 10:39:54;;;;;;;35.47;23.20;;;3.70;99.90;;;;;;5018339;28;20489;-92
2020/12/10 10:42:20;;;;;;;34.30;20.67;;;3.50;99.90;;;;;;5019775;28;20026;-93
2020/12/10 10:44:48;;;;;;;37.40;21.45;;;3.40;99.90;;;;;;5017903;28;20031;-93
2020/12/10 10:47:22;;;;;;;34.90;22.02;;;3.30;99.90;;;;;;5049321;28;20166;-93
2020/12/10 10:49:47;;;;;;;35.38;22.05;;;3.30;99.90;;;;;;5040528;28;20065;-93
2020/12/10 10:52:16;;;;;;;32.70;20.88;;;3.40;99.90;;;;;;5017350;28;20076;-92
2020/12/10 10:55:00;;;;;;;35.10;20.75;;;3.70;99.90;;;;;;5020200;28;20025;-93
2020/12/10 10:57:27;;;;;;;35.35;21.48;;;4.00;99.90;;;;;;5035490;28;20025;-93
2020/12/10 10:59:54;;;;;;;34.20;20.58;;;4.10;99.90;;;;;;5038885;28;20083;-94
2020/12/10 11:02:33;;;;;;;35.13;21.35;;;4.20;99.90;;;;;;5006076;28;20029;-93
2020/12/10 11:05:07;;;;;;;33.25;20.20;;;4.40;99.90;;;;;;5056185;28;20040;-94
2020/12/10 11:07:42;;;;;;;;;;;;;;;;;;;;;
2020/12/10 11:10:12;;;;;;;35.53;21.77;;;4.50;99.90;;;;;;5055577;28;20023;-94
2020/12/10 11:12:41;;;;;;;34.85;21.25;;;4.40;99.90;;;;;;5039210;28;20354;-94
2020/12/10 11:15:07;;;;;;;35.45;21.20;;;4.40;99.90;;;;;;5057588;28;20074;-94
2020/12/10 11:17:36;;;;;;;33.28;20.63;;;4.50;99.90;;;;;;5039038;28;20017;-95
2020/12/10 11:20:42;;;;;;;32.05;19.85;;;4.70;99.90;;;;;;5027642;28;20053;-94
2020/12/10 11:23:12;;;;;;;34.58;22.13;;;4.90;99.90;;;;;;4988188;28;20049;-94
2020/12/10 11:25:43;;;;;;;35.40;21.65;;;4.80;99.90;;;;;;5018778;28;20073;-93
2020/12/10 11:28:12;;;;;;;34.08;21.23;;;4.60;99.90;;;;;;5042006;28;20025;-95
2020/12/10 11:30:41;;;;;;;36.97;22.98;;;4.40;99.90;;;;;;5040087;28;20571;-92
2020/12/10 11:33:07;;;;;;;36.55;24.15;;;4.20;99.90;;;;;;5042177;28;20769;-93
2020/12/10 11:35:33;;;;;;;34.97;22.35;;;4.00;99.90;;;;;;5039692;28;20461;-94
2020/12/10 11:37:59;;;;;;;34.72;21.65;;;3.90;99.90;;;;;;5037809;28;20021;-95
2020/12/10 11:40:30;;;;;;;39.15;24.50;;;3.90;99.90;;;;;;5040128;28;20092;-94
2020/12/10 11:42:56;;;;;;;33.72;21.35;;;3.80;99.90;;;;;;5035531;28;20083;-92
2020/12/10 11:45:46;;;;;;;34.65;21.90;;;3.70;99.90;;;;;;5039248;28;20033;-94
2020/12/10 11:48:11;;;;;;;35.83;22.55;;;3.60;99.90;;;;;;5054063;28;20068;-90
2020/12/10 11:50:46;;;;;;;36.35;22.13;;;3.50;99.90;;;;;;5056879;28;20025;-91
2020/12/10 11:53:13;;;;;;;35.28;22.17;;;3.50;99.90;;;;;;5024954;28;20074;-90
2020/12/10 11:55:38;;;;;;;34.83;21.88;;;3.40;99.90;;;;;;5031266;28;19998;-90
2020/12/10 11:58:08;;;;;;;37.92;23.15;;;3.30;99.90;;;;;;5019944;28;20076;-95
2020/12/10 12:00:48;;;;;;;;;;;;;;;;;;;;;
2020/12/10 12:03:14;;;;;;;34.10;21.42;;;3.20;99.90;;;;;;5013069;28;20110;-96
2020/12/10 12:05:40;;;;;;;36.83;22.80;;;3.20;99.90;;;;;;5019061;28;20057;-95
2020/12/10 12:08:06;;;;;;;34.72;22.25;;;3.20;99.90;;;;;;5012643;28;20069;-94
2020/12/10 12:10:34;;;;;;;31.60;20.15;;;3.20;99.90;;;;;;5004105;28;20026;-90
2020/12/10 12:13:03;;;;;;;31.30;19.23;;;3.20;99.90;;;;;;5000610;28;20125;-93
2020/12/10 12:15:35;;;;;;;33.42;21.33;;;3.20;99.90;;;;;;5023262;28;20418;-93
2020/12/10 12:18:01;;;;;;;33.50;21.67;;;3.20;99.90;;;;;;5000600;28;20030;-92
2020/12/10 12:20:26;;;;;;;33.75;19.92;;;3.20;99.90;;;;;;5005538;28;20040;-92
2020/12/10 12:23:05;;;;;;;;;;;;;;;;;;;;;
2020/12/10 12:25:40;;;;;;;34.00;19.90;;;3.20;99.90;;;;;;5023755;28;20025;-92
2020/12/10 12:28:09;;;;;;;34.08;19.67;;;3.20;99.90;;;;;;5006853;28;20022;-93
2020/12/10 12:33:37;;;;;;;31.95;19.30;;;3.20;99.90;;;;;;4992644;28;20076;-93
2020/12/10 12:36:18;;;;;;;35.47;21.45;;;3.10;99.90;;;;;;5008884;28;20034;-92
2020/12/10 12:42:03;;;;;;;33.75;20.00;;;3.00;99.90;;;;;;4987076;28;20034;-91
2020/12/10 12:45:01;;;;;;;32.42;19.88;;;3.00;99.90;;;;;;5010508;28;20037;-93
2020/12/10 12:47:36;;;;;;;34.50;20.73;;;3.00;99.90;;;;;;5002574;28;20112;-95
2020/12/10 12:50:11;;;;;;;34.90;20.20;;;3.00;99.90;;;;;;5003453;28;20033;-93
2020/12/10 12:53:04;;;;;;;33.72;19.55;;;3.00;99.90;;;;;;5035062;28;20065;-94
2020/12/10 12:55:36;;;;;;;32.33;19.98;;;3.00;99.90;;;;;;5012177;28;20030;-92
2020/12/10 12:58:10;;;;;;;31.92;19.30;;;3.00;99.90;;;;;;5003885;28;20030;-94
2020/12/10 13:00:48;;;;;;;32.00;19.30;;;2.90;99.90;;;;;;5020793;28;20030;-91
2020/12/10 13:03:29;;;;;;;32.20;20.00;;;2.90;99.90;;;;;;5023446;28;20080;-93
2020/12/10 13:06:04;;;;;;;34.60;21.25;;;2.80;99.90;;;;;;5003748;28;20052;-92
2020/12/10 13:08:46;;;;;;;38.38;21.63;;;2.80;99.90;;;;;;4997044;28;20120;-93
2020/12/10 13:11:58;;;;;;;33.78;20.73;;;2.80;99.90;;;;;;5021139;28;20033;-93
2020/12/10 13:14:38;;;;;;;;;;;;;;;;;;;;;
2020/12/10 13:17:21;;;;;;;37.40;22.65;;;2.70;99.90;;;;;;5029545;28;20122;-93
2020/12/10 13:19:50;;;;;;;34.78;21.02;;;2.70;99.90;;;;;;5020180;28;20021;-93
2020/12/10 13:22:23;;;;;;;33.05;20.92;;;2.70;99.90;;;;;;5032565;28;20063;-92
2020/12/10 13:24:59;;;;;;;37.05;22.42;;;2.70;99.90;;;;;;5032445;28;20013;-92
2020/12/10 13:27:50;;;;;;;36.75;23.23;;;2.70;99.90;;;;;;5029672;28;20037;-92
2020/12/10 13:30:17;;;;;;;37.60;22.83;;;2.60;99.90;;;;;;5024184;28;20028;-92
2020/12/10 13:32:43;;;;;;;33.38;19.85;;;2.60;99.90;;;;;;5010951;28;20033;-93
2020/12/10 13:35:16;;;;;;;35.95;22.30;;;2.60;99.90;;;;;;5024413;28;20021;-93
2020/12/10 13:37:42;;;;;;;33.60;20.65;;;2.70;99.90;;;;;;5031946;28;20052;-92